Time;durP1;ratioP1;P1;durP2;ratioP2;P2;SDS_P1;SDS_P2;PMS_P1;PMS_P2;Temp;Humidity;BMP_temperature;BMP_pressure;BME280_temperature;BME280_humidity;BME280_pressure;Samples;Min_cycle;Max_cycle;Signal;HPM_P1;HPM_P2
2023/03/19 00:02:11;;;;;;;3.97;2.00;;;15.20;99.90;;;;;;5015283;28;20692;-78
2023/03/19 00:04:37;;;;;;;4.70;1.83;;;15.20;99.90;;;;;;5010326;28;20375;-79
2023/03/19 00:07:02;;;;;;;2.60;1.40;;;15.20;99.90;;;;;;5009890;28;20276;-79
2023/03/19 00:09:28;;;;;;;3.00;1.17;;;15.20;99.90;;;;;;5011146;28;20201;-79
2023/03/19 00:11:54;;;;;;;3.10;2.00;;;15.20;99.90;;;;;;5011085;28;20623;-78
2023/03/19 00:14:20;;;;;;;4.27;2.23;;;15.20;99.90;;;;;;5013545;28;20181;-78
2023/03/19 00:16:46;;;;;;;5.47;3.07;;;15.20;99.90;;;;;;5014626;28;21188;-78
2023/03/19 00:19:12;;;;;;;6.33;3.30;;;15.10;99.90;;;;;;5014858;28;20185;-78
2023/03/19 00:21:37;;;;;;;7.33;2.90;;;15.20;99.90;;;;;;5033911;28;20674;-78
2023/03/19 00:24:03;;;;;;;7.07;3.10;;;15.10;99.90;;;;;;5016629;28;20345;-78
2023/03/19 00:26:32;;;;;;;6.63;2.27;;;15.10;99.90;;;;;;5033201;28;20182;-78
2023/03/19 00:28:58;;;;;;;4.30;2.80;;;15.10;99.90;;;;;;5016046;28;20634;-78
2023/03/19 00:31:26;;;;;;;4.67;3.30;;;15.10;99.90;;;;;;5032976;28;21250;-78
2023/03/19 00:33:52;;;;;;;4.60;2.60;;;15.10;99.90;;;;;;5033807;28;20572;-78
2023/03/19 00:36:18;;;;;;;4.87;2.47;;;15.10;99.90;;;;;;5034307;28;20590;-78
2023/03/19 00:38:45;;;;;;;4.77;2.77;;;15.00;99.90;;;;;;5033597;28;20572;-78
2023/03/19 00:41:11;;;;;;;3.70;2.80;;;15.00;99.90;;;;;;5016344;28;21136;-78
2023/03/19 00:43:38;;;;;;;4.83;3.37;;;14.90;99.90;;;;;;5016043;28;20616;-78
2023/03/19 00:46:04;;;;;;;5.30;3.50;;;14.90;99.90;;;;;;5032745;28;20576;-78
2023/03/19 00:48:30;;;;;;;5.80;2.23;;;14.90;99.90;;;;;;5033761;28;20626;-78
2023/03/19 00:51:03;;;;;;;6.63;2.83;;;14.80;99.90;;;;;;5032265;28;20642;-78
2023/03/19 00:53:29;;;;;;;3.67;2.50;;;14.70;99.90;;;;;;5032671;28;20638;-78
2023/03/19 00:55:55;;;;;;;3.70;2.00;;;14.70;99.90;;;;;;5015542;28;20580;-78
2023/03/19 00:58:21;;;;;;;7.40;2.20;;;14.70;99.90;;;;;;5032556;28;20181;-78
2023/03/19 01:00:47;;;;;;;4.97;2.13;;;14.70;99.90;;;;;;5029033;28;20178;-78
2023/03/19 01:03:13;;;;;;;3.10;1.77;;;14.60;99.90;;;;;;4996284;28;20202;-78
2023/03/19 01:05:40;;;;;;;2.43;1.60;;;14.70;99.90;;;;;;5013864;28;20580;-78
2023/03/19 01:08:06;;;;;;;2.57;1.90;;;14.60;99.90;;;;;;4996058;28;20177;-78
2023/03/19 01:10:33;;;;;;;3.20;1.27;;;14.50;99.90;;;;;;5012317;28;20998;-78
2023/03/19 01:13:01;;;;;;;7.53;1.60;;;14.50;99.90;;;;;;4996097;28;20296;-78
2023/03/19 01:15:26;;;;;;;3.70;2.20;;;14.40;99.90;;;;;;5012688;28;20681;-78
2023/03/19 01:17:52;;;;;;;3.50;1.67;;;14.40;99.90;;;;;;5012485;28;20178;-78
2023/03/19 01:20:19;;;;;;;2.17;1.27;;;14.40;99.90;;;;;;5004783;28;20161;-78
2023/03/19 01:22:45;;;;;;;4.72;1.80;;;14.30;99.90;;;;;;5015825;28;20197;-78
2023/03/19 01:25:12;;;;;;;3.60;1.43;;;14.30;99.90;;;;;;5016634;28;20173;-78
2023/03/19 01:27:41;;;;;;;2.30;1.30;;;14.20;99.90;;;;;;5032532;28;20580;-78
2023/03/19 01:30:09;;;;;;;3.77;1.83;;;14.10;99.90;;;;;;5031818;28;20592;-78
2023/03/19 01:32:53;;;;;;;4.20;1.67;;;14.10;99.90;;;;;;5032706;28;20612;-78
2023/03/19 01:35:38;;;;;;;3.63;1.80;;;14.10;99.90;;;;;;5032956;28;20588;-79
2023/03/19 01:38:05;;;;;;;4.28;1.70;;;14.00;99.90;;;;;;5031201;28;20660;-78
2023/03/19 01:40:31;;;;;;;4.13;2.23;;;14.00;99.90;;;;;;5015090;28;20169;-78
2023/03/19 01:43:16;;;;;;;5.68;2.20;;;13.90;99.90;;;;;;5014621;28;20627;-78
2023/03/19 01:46:05;;;;;;;5.13;2.60;;;13.80;99.90;;;;;;5031791;28;20182;-78
2023/03/19 01:48:47;;;;;;;4.47;2.43;;;13.80;99.90;;;;;;5032449;28;20173;-78
2023/03/19 01:51:23;;;;;;;7.43;2.97;;;13.80;99.90;;;;;;5030939;28;20709;-79
2023/03/19 01:53:52;;;;;;;5.05;2.53;;;13.80;99.90;;;;;;5032446;28;21395;-79
2023/03/19 01:56:35;;;;;;;5.53;3.00;;;13.70;99.90;;;;;;5014971;28;20656;-79
2023/03/19 01:59:13;;;;;;;6.45;2.45;;;13.80;99.90;;;;;;5031025;28;20189;-78
2023/03/19 02:02:08;;;;;;;3.70;1.90;;;13.80;99.90;;;;;;5018750;28;20213;-78
2023/03/19 02:04:59;;;;;;;6.45;2.15;;;13.80;99.90;;;;;;5031056;28;20583;-78
2023/03/19 02:07:28;;;;;;;7.68;2.90;;;13.80;99.90;;;;;;5015069;28;20177;-78
2023/03/19 02:09:54;;;;;;;3.00;1.92;;;13.90;99.90;;;;;;5013001;28;20231;-78
2023/03/19 02:12:20;;;;;;;4.43;2.03;;;13.90;99.90;;;;;;5007080;28;20201;-79
2023/03/19 02:14:46;;;;;;;3.60;1.77;;;13.90;99.90;;;;;;4998576;28;20168;-79
2023/03/19 02:17:11;;;;;;;5.73;2.40;;;13.90;99.90;;;;;;5013918;28;20572;-79
2023/03/19 02:19:47;;;;;;;3.63;1.90;;;13.90;99.90;;;;;;5013871;28;20611;-78
2023/03/19 02:22:17;;;;;;;3.23;2.53;;;13.90;99.90;;;;;;5013877;28;20612;-79
2023/03/19 02:24:54;;;;;;;4.90;2.17;;;13.90;99.90;;;;;;5030869;28;20573;-77
2023/03/19 02:27:21;;;;;;;5.10;2.40;;;14.00;99.90;;;;;;5030645;28;21204;-78
2023/03/19 02:29:49;;;;;;;7.60;2.20;;;14.00;99.90;;;;;;5013951;28;20580;-77
2023/03/19 02:32:15;;;;;;;4.20;1.90;;;14.00;99.90;;;;;;5030138;28;20643;-77
2023/03/19 02:34:42;;;;;;;4.37;1.60;;;14.00;99.90;;;;;;5029856;28;20634;-77
2023/03/19 02:37:23;;;;;;;3.03;1.80;;;14.00;99.90;;;;;;5013989;28;20173;-77
2023/03/19 02:40:02;;;;;;;3.57;1.63;;;14.00;99.90;;;;;;5014107;28;20580;-77
2023/03/19 02:42:29;;;;;;;5.83;2.27;;;14.00;99.90;;;;;;5030202;28;20600;-77
2023/03/19 02:44:57;;;;;;;3.10;1.77;;;14.00;99.90;;;;;;5013900;28;20580;-77
2023/03/19 02:47:24;;;;;;;2.97;1.93;;;14.00;99.90;;;;;;5013766;28;21020;-77
2023/03/19 02:49:50;;;;;;;6.40;2.00;;;14.00;99.90;;;;;;5031132;28;20576;-77
2023/03/19 02:52:16;;;;;;;3.00;1.53;;;14.00;99.90;;;;;;5013548;28;21221;-77
2023/03/19 02:54:42;;;;;;;3.03;2.00;;;14.00;99.90;;;;;;5029696;28;20224;-77
2023/03/19 02:57:07;;;;;;;3.57;1.60;;;14.00;99.90;;;;;;5030360;28;20966;-77
2023/03/19 02:59:33;;;;;;;5.10;1.50;;;14.00;99.90;;;;;;5013182;28;20169;-77
2023/03/19 03:01:59;;;;;;;4.53;1.60;;;14.00;99.90;;;;;;5013835;28;20616;-77
2023/03/19 03:04:25;;;;;;;3.90;1.40;;;14.00;99.90;;;;;;5029994;28;20342;-77
2023/03/19 03:06:51;;;;;;;2.50;1.70;;;14.00;99.90;;;;;;5013805;28;21308;-77
2023/03/19 03:09:17;;;;;;;5.73;1.43;;;14.00;99.90;;;;;;5013460;28;20583;-77
2023/03/19 03:11:43;;;;;;;4.47;1.60;;;14.00;99.90;;;;;;5012816;28;20655;-78
2023/03/19 03:14:09;;;;;;;5.30;1.20;;;14.00;99.90;;;;;;5029821;28;20569;-78
2023/03/19 03:16:36;;;;;;;2.73;1.20;;;14.10;99.90;;;;;;5013430;28;20173;-78
2023/03/19 03:19:03;;;;;;;3.57;1.33;;;14.10;99.90;;;;;;5013337;28;20671;-78
2023/03/19 03:21:29;;;;;;;4.30;1.10;;;14.10;99.90;;;;;;5028633;28;20639;-78
2023/03/19 03:23:55;;;;;;;2.27;1.00;;;14.10;99.90;;;;;;5013570;28;21124;-78
2023/03/19 03:26:21;;;;;;;4.03;1.53;;;14.10;99.90;;;;;;5029637;28;20588;-78
2023/03/19 03:28:47;;;;;;;2.90;0.90;;;14.10;99.90;;;;;;5029515;28;20185;-78
2023/03/19 03:31:13;;;;;;;2.87;1.47;;;14.10;99.90;;;;;;5012899;28;21004;-78
2023/03/19 03:33:39;;;;;;;3.43;1.60;;;14.10;99.90;;;;;;5029147;28;20174;-78
2023/03/19 03:36:05;;;;;;;3.20;1.20;;;14.10;99.90;;;;;;5013474;28;20593;-78
2023/03/19 03:38:31;;;;;;;3.20;1.80;;;14.10;99.90;;;;;;5030895;28;20553;-78
2023/03/19 03:40:57;;;;;;;2.63;1.27;;;14.10;99.90;;;;;;5013546;28;20638;-78
2023/03/19 03:43:25;;;;;;;5.63;1.33;;;14.10;99.90;;;;;;5013035;28;20198;-78
2023/03/19 03:45:52;;;;;;;3.30;1.20;;;14.10;99.90;;;;;;5013215;28;20637;-78
2023/03/19 03:48:18;;;;;;;3.53;1.10;;;14.20;99.90;;;;;;5032153;28;20588;-76
2023/03/19 03:50:44;;;;;;;2.80;0.90;;;14.10;99.90;;;;;;5017267;28;20669;-76
2023/03/19 03:53:14;;;;;;;3.73;1.33;;;14.20;99.90;;;;;;5033056;28;20201;-77
2023/03/19 03:55:40;;;;;;;3.03;1.10;;;14.20;99.90;;;;;;5033935;28;20584;-77
2023/03/19 03:58:06;;;;;;;5.80;1.50;;;14.10;99.90;;;;;;5033641;28;20581;-76
2023/03/19 04:00:32;;;;;;;4.77;1.17;;;14.10;99.90;;;;;;5033204;28;20687;-77
2023/03/19 04:02:58;;;;;;;2.13;1.20;;;14.10;99.90;;;;;;5033509;28;20711;-76
2023/03/19 04:05:24;;;;;;;2.73;0.90;;;14.10;99.90;;;;;;5016651;28;21154;-76
2023/03/19 04:07:51;;;;;;;3.50;1.20;;;14.10;99.90;;;;;;5017017;28;20177;-78
2023/03/19 04:10:18;;;;;;;2.20;1.07;;;14.10;99.90;;;;;;5032878;28;20588;-78
2023/03/19 04:12:44;;;;;;;1.70;0.80;;;14.00;99.90;;;;;;5016148;28;20638;-78
2023/03/19 04:15:11;;;;;;;2.30;0.80;;;14.00;99.90;;;;;;5033019;28;21110;-78
2023/03/19 04:17:40;;;;;;;3.70;1.20;;;14.00;99.90;;;;;;5016598;28;20695;-78
2023/03/19 04:20:07;;;;;;;4.67;1.10;;;14.00;99.90;;;;;;5012741;28;20589;-78
2023/03/19 04:22:33;;;;;;;5.17;1.20;;;13.90;99.90;;;;;;5014375;28;20620;-77
2023/03/19 04:24:59;;;;;;;1.90;0.80;;;13.90;99.90;;;;;;5014741;28;20577;-77
2023/03/19 04:27:25;;;;;;;1.33;0.80;;;13.80;99.90;;;;;;5013024;28;20177;-78
2023/03/19 04:29:51;;;;;;;3.50;1.10;;;13.70;99.90;;;;;;5013150;28;20585;-78
2023/03/19 04:32:18;;;;;;;3.13;0.80;;;13.70;99.90;;;;;;5012767;28;20647;-78
2023/03/19 04:34:44;;;;;;;2.63;1.10;;;13.70;99.90;;;;;;5013179;28;21057;-78
2023/03/19 04:37:10;;;;;;;3.20;1.00;;;13.70;99.90;;;;;;5035732;28;20174;-78
2023/03/19 04:39:43;;;;;;;2.40;1.20;;;13.70;99.90;;;;;;5016201;28;20174;-78
2023/03/19 04:42:10;;;;;;;3.00;0.93;;;13.70;99.90;;;;;;5032009;28;20624;-78
2023/03/19 04:44:43;;;;;;;3.92;1.00;;;13.70;99.90;;;;;;5032812;28;20612;-78
2023/03/19 04:47:11;;;;;;;1.60;0.93;;;13.70;99.90;;;;;;5016432;28;20181;-77
2023/03/19 04:49:47;;;;;;;1.60;0.80;;;13.70;99.90;;;;;;5032584;28;20595;-76
2023/03/19 04:52:14;;;;;;;5.40;1.27;;;13.70;99.90;;;;;;5032510;28;20659;-76
2023/03/19 04:54:40;;;;;;;2.23;0.83;;;13.70;99.90;;;;;;5032277;28;20637;-76
2023/03/19 04:57:07;;;;;;;1.70;0.90;;;13.80;99.90;;;;;;5032445;28;20174;-76
2023/03/19 04:59:36;;;;;;;2.00;0.80;;;13.80;99.90;;;;;;5014838;28;20671;-76
2023/03/19 05:02:03;;;;;;;2.67;1.30;;;13.80;99.90;;;;;;5015961;28;20747;-76
2023/03/19 05:04:30;;;;;;;1.90;0.80;;;13.80;99.90;;;;;;5032233;28;20269;-76
2023/03/19 05:07:01;;;;;;;2.30;1.08;;;13.80;99.90;;;;;;5032664;28;20675;-76
2023/03/19 05:09:29;;;;;;;2.23;1.20;;;13.80;99.90;;;;;;5031932;28;20178;-76
2023/03/19 05:11:55;;;;;;;1.97;1.00;;;13.80;99.90;;;;;;5015088;28;20639;-76
2023/03/19 05:14:21;;;;;;;2.33;0.90;;;13.80;99.90;;;;;;5026615;28;20584;-76
2023/03/19 05:17:09;;;;;;;2.40;1.97;;;13.80;99.90;;;;;;5033447;28;20654;-76
2023/03/19 05:19:48;;;;;;;2.47;1.00;;;13.80;99.90;;;;;;5028097;28;20600;-76
2023/03/19 05:22:16;;;;;;;1.70;0.80;;;13.80;99.90;;;;;;5027866;28;20562;-76
2023/03/19 05:24:42;;;;;;;1.60;0.80;;;13.80;99.90;;;;;;5015473;28;20584;-76
2023/03/19 05:27:07;;;;;;;3.33;0.90;;;13.80;99.90;;;;;;5031699;28;20182;-76
2023/03/19 05:29:42;;;;;;;2.53;0.85;;;13.80;99.90;;;;;;5015197;28;20641;-76
2023/03/19 05:32:20;;;;;;;4.32;1.00;;;13.80;99.90;;;;;;5031200;28;20799;-76
2023/03/19 05:34:46;;;;;;;1.70;1.00;;;13.80;99.90;;;;;;5015371;28;20696;-76
2023/03/19 05:37:12;;;;;;;1.50;0.80;;;13.80;99.90;;;;;;5031270;28;20261;-77
2023/03/19 05:39:39;;;;;;;2.10;1.05;;;13.80;99.90;;;;;;5031410;28;20580;-76
2023/03/19 05:42:08;;;;;;;1.80;0.85;;;13.70;99.90;;;;;;5014498;28;20196;-77
2023/03/19 05:44:33;;;;;;;3.25;0.90;;;13.70;99.90;;;;;;5015087;28;20717;-77
2023/03/19 05:47:09;;;;;;;3.15;1.00;;;13.70;99.90;;;;;;5014604;28;20213;-77
2023/03/19 05:49:37;;;;;;;2.83;1.17;;;13.70;99.90;;;;;;5031424;28;20680;-76
2023/03/19 05:52:03;;;;;;;1.67;0.90;;;13.70;99.90;;;;;;5031172;28;20213;-76
2023/03/19 05:54:30;;;;;;;1.97;0.83;;;13.70;99.90;;;;;;5031588;28;20178;-76
2023/03/19 05:57:01;;;;;;;2.80;1.00;;;13.70;99.90;;;;;;4999385;28;21209;-76
2023/03/19 05:59:40;;;;;;;1.60;1.00;;;13.70;99.90;;;;;;5030931;28;20638;-76
2023/03/19 06:02:25;;;;;;;1.60;0.90;;;13.70;99.90;;;;;;5032554;28;20189;-75
2023/03/19 06:05:02;;;;;;;2.43;0.90;;;13.70;99.90;;;;;;5014448;28;20580;-75
2023/03/19 06:07:29;;;;;;;1.55;0.80;;;13.70;99.90;;;;;;5015158;28;20595;-75
2023/03/19 06:09:56;;;;;;;1.83;0.80;;;13.70;99.90;;;;;;5029095;28;20189;-76
2023/03/19 06:12:22;;;;;;;2.60;0.77;;;13.70;99.90;;;;;;5013427;28;20648;-76
2023/03/19 06:15:08;;;;;;;3.00;0.70;;;13.70;99.90;;;;;;5014040;28;20573;-76
2023/03/19 06:17:59;;;;;;;1.30;0.60;;;13.70;99.90;;;;;;5032180;28;20722;-76
2023/03/19 06:20:25;;;;;;;1.50;0.87;;;13.70;99.90;;;;;;5029798;28;20601;-76
2023/03/19 06:22:51;;;;;;;3.67;0.80;;;13.80;99.90;;;;;;4998157;28;20190;-76
2023/03/19 06:25:25;;;;;;;1.33;0.63;;;13.80;99.90;;;;;;5030690;28;20616;-76
2023/03/19 06:27:51;;;;;;;1.77;0.80;;;13.80;99.90;;;;;;5031028;28;20579;-76
2023/03/19 06:30:24;;;;;;;1.25;0.70;;;13.90;99.90;;;;;;5013902;28;20580;-76
2023/03/19 06:32:51;;;;;;;2.53;0.90;;;13.90;99.90;;;;;;5013747;28;20181;-76
2023/03/19 06:35:17;;;;;;;1.70;0.70;;;13.90;99.90;;;;;;5030774;28;20697;-76
2023/03/19 06:37:46;;;;;;;2.03;1.00;;;14.00;99.90;;;;;;5013875;28;20579;-78
2023/03/19 06:40:12;;;;;;;2.33;1.00;;;14.00;99.90;;;;;;5031667;28;20557;-78
2023/03/19 06:42:38;;;;;;;2.88;0.80;;;14.00;99.90;;;;;;5031513;28;20277;-77
2023/03/19 06:45:05;;;;;;;2.90;0.70;;;14.00;99.90;;;;;;5030507;28;20642;-78
2023/03/19 06:47:31;;;;;;;1.50;0.73;;;14.00;99.90;;;;;;5013634;28;20173;-77
2023/03/19 06:49:56;;;;;;;2.07;0.80;;;14.00;99.90;;;;;;5031574;28;20577;-77
2023/03/19 06:52:22;;;;;;;1.63;0.70;;;14.00;99.90;;;;;;5029521;28;20209;-78
2023/03/19 06:54:48;;;;;;;1.70;0.70;;;13.90;99.90;;;;;;5031818;28;20174;-77
2023/03/19 06:57:13;;;;;;;1.87;0.87;;;14.00;99.90;;;;;;5030885;28;20649;-78
2023/03/19 06:59:39;;;;;;;1.60;0.80;;;13.90;99.90;;;;;;5029695;28;20178;-78
2023/03/19 07:02:05;;;;;;;1.53;0.83;;;14.00;99.90;;;;;;5029942;28;20681;-78
2023/03/19 07:04:31;;;;;;;2.87;1.00;;;13.90;99.90;;;;;;5029326;28;20178;-77
2023/03/19 07:06:57;;;;;;;3.23;0.93;;;13.90;99.90;;;;;;5031301;28;20607;-77
2023/03/19 07:09:22;;;;;;;1.60;0.70;;;13.90;99.90;;;;;;5030718;28;20209;-77
2023/03/19 07:11:48;;;;;;;1.70;0.80;;;13.90;99.90;;;;;;5030362;28;20206;-77
2023/03/19 07:14:14;;;;;;;2.00;0.90;;;13.90;99.90;;;;;;5031033;28;20256;-77
2023/03/19 07:16:39;;;;;;;2.43;0.90;;;14.00;99.90;;;;;;5030062;28;20181;-78
2023/03/19 07:19:06;;;;;;;3.33;0.77;;;14.00;99.90;;;;;;5026088;28;20201;-77
2023/03/19 07:21:31;;;;;;;1.80;0.70;;;14.00;99.90;;;;;;5028953;28;20665;-78
2023/03/19 07:23:57;;;;;;;3.60;0.70;;;14.00;99.90;;;;;;5029577;28;20584;-77
2023/03/19 07:26:23;;;;;;;1.40;0.70;;;13.90;99.90;;;;;;5030365;28;20166;-78
2023/03/19 07:28:48;;;;;;;1.70;0.70;;;13.90;99.90;;;;;;5029151;28;20256;-78
2023/03/19 07:31:15;;;;;;;1.83;0.80;;;14.00;99.90;;;;;;5012482;28;20673;-78
2023/03/19 07:33:41;;;;;;;1.97;0.73;;;14.00;99.90;;;;;;5029148;28;20177;-78
2023/03/19 07:36:07;;;;;;;2.17;1.00;;;14.00;99.90;;;;;;5028981;28;20642;-77
2023/03/19 07:38:33;;;;;;;2.73;0.80;;;14.10;99.90;;;;;;5029360;28;20286;-78
2023/03/19 07:40:58;;;;;;;2.13;0.80;;;14.10;99.90;;;;;;5030939;28;20934;-78
2023/03/19 07:43:24;;;;;;;1.40;0.80;;;14.20;99.90;;;;;;5028091;28;20189;-78
2023/03/19 07:45:50;;;;;;;1.83;0.70;;;14.20;99.90;;;;;;5029549;28;20180;-78
2023/03/19 07:48:16;;;;;;;1.70;0.70;;;14.30;99.90;;;;;;5028608;28;20551;-78
2023/03/19 07:50:42;;;;;;;2.87;0.83;;;14.40;99.90;;;;;;5012829;28;20626;-79
2023/03/19 07:53:07;;;;;;;1.40;0.70;;;14.60;99.90;;;;;;5029516;28;20620;-79
2023/03/19 07:55:33;;;;;;;1.50;0.60;;;14.80;99.90;;;;;;5029780;28;20637;-80
2023/03/19 07:57:59;;;;;;;1.30;0.70;;;15.10;99.90;;;;;;5028887;28;20185;-79
2023/03/19 08:00:25;;;;;;;1.80;0.80;;;15.30;99.90;;;;;;5029280;28;20603;-80
2023/03/19 08:02:50;;;;;;;1.47;0.77;;;15.50;99.90;;;;;;5028984;28;20568;-80
2023/03/19 08:05:16;;;;;;;1.50;0.70;;;15.80;99.90;;;;;;5028859;28;20212;-79
2023/03/19 08:07:42;;;;;;;1.57;0.70;;;16.20;99.90;;;;;;5029659;28;20213;-80
2023/03/19 08:10:09;;;;;;;2.03;0.70;;;16.50;99.90;;;;;;5028682;28;20174;-79
2023/03/19 08:12:39;;;;;;;1.63;0.70;;;16.80;99.90;;;;;;5028800;28;20702;-79
2023/03/19 08:15:07;;;;;;;1.80;0.80;;;16.90;99.90;;;;;;5028728;28;20942;-79
2023/03/19 08:17:36;;;;;;;1.83;0.80;;;16.80;99.90;;;;;;5013191;28;20588;-81
2023/03/19 08:20:05;;;;;;;1.70;0.80;;;16.80;99.90;;;;;;5030208;28;20585;-80
2023/03/19 08:22:31;;;;;;;2.50;0.73;;;16.70;99.90;;;;;;5032198;28;20616;-80
2023/03/19 08:24:56;;;;;;;2.37;0.93;;;16.60;99.90;;;;;;4997149;28;21173;-81
2023/03/19 08:27:22;;;;;;;1.63;0.80;;;16.50;99.90;;;;;;5029265;28;20637;-80
2023/03/19 08:29:48;;;;;;;1.93;0.80;;;16.30;99.90;;;;;;5029288;28;20197;-81
2023/03/19 08:32:14;;;;;;;5.63;1.00;;;16.30;99.90;;;;;;5028754;28;20296;-81
2023/03/19 08:34:39;;;;;;;1.33;0.60;;;16.20;99.90;;;;;;5032654;28;20212;-80
2023/03/19 08:37:05;;;;;;;1.80;1.00;;;16.20;99.90;;;;;;5032625;28;21128;-79
2023/03/19 08:39:31;;;;;;;1.50;0.90;;;16.20;99.90;;;;;;4999770;28;20696;-81
2023/03/19 08:41:57;;;;;;;1.67;1.07;;;16.40;99.90;;;;;;5032652;28;20229;-80
2023/03/19 08:44:22;;;;;;;1.63;0.90;;;16.70;99.90;;;;;;5033305;28;20681;-81
2023/03/19 08:46:48;;;;;;;1.93;0.97;;;17.00;99.90;;;;;;5016290;28;20177;-80
2023/03/19 08:49:14;;;;;;;2.17;1.00;;;17.30;99.90;;;;;;5031424;28;20650;-78
2023/03/19 08:51:40;;;;;;;2.93;1.13;;;17.60;99.90;;;;;;5033243;28;20639;-79
2023/03/19 08:54:05;;;;;;;2.27;1.07;;;17.80;99.90;;;;;;5031930;28;20169;-79
2023/03/19 08:56:31;;;;;;;1.80;1.10;;;17.90;99.90;;;;;;5033798;28;20173;-78
2023/03/19 08:58:57;;;;;;;2.50;1.17;;;18.10;99.90;;;;;;5032649;28;20216;-80
2023/03/19 09:01:23;;;;;;;2.67;0.90;;;18.30;99.90;;;;;;5032976;28;20407;-79
2023/03/19 09:03:49;;;;;;;2.03;1.10;;;18.50;99.90;;;;;;5032542;28;20221;-80
2023/03/19 09:06:15;;;;;;;2.00;1.03;;;18.70;99.90;;;;;;5031639;28;20634;-79
2023/03/19 09:08:41;;;;;;;2.47;1.20;;;18.90;99.90;;;;;;5032756;28;20616;-80
2023/03/19 09:11:09;;;;;;;2.43;1.23;;;19.10;99.90;;;;;;5033016;28;21157;-80
2023/03/19 09:13:35;;;;;;;2.00;1.00;;;19.60;99.90;;;;;;5032140;28;20597;-81
2023/03/19 09:16:02;;;;;;;2.13;0.90;;;20.10;99.90;;;;;;5031558;28;20987;-81
2023/03/19 09:18:28;;;;;;;1.60;1.00;;;20.80;99.90;;;;;;5031784;28;20614;-81
2023/03/19 09:20:54;;;;;;;1.60;0.93;;;21.20;99.90;;;;;;5025886;28;21260;-81
2023/03/19 09:23:20;;;;;;;2.10;0.93;;;21.50;99.90;;;;;;5033300;28;21186;-81
2023/03/19 09:25:47;;;;;;;2.37;1.03;;;21.80;99.90;;;;;;5033127;28;20572;-81
2023/03/19 09:28:12;;;;;;;1.40;0.90;;;22.00;99.90;;;;;;5014832;28;20715;-81
2023/03/19 09:30:39;;;;;;;1.80;1.03;;;22.10;99.90;;;;;;5031548;28;20589;-81
2023/03/19 09:33:05;;;;;;;1.93;1.00;;;22.30;99.90;;;;;;5032057;28;20604;-81
2023/03/19 09:35:32;;;;;;;1.80;0.90;;;22.50;99.90;;;;;;5031758;28;20174;-82
2023/03/19 09:37:59;;;;;;;1.70;1.00;;;22.60;99.90;;;;;;5031182;28;20572;-81
2023/03/19 09:40:32;;;;;;;1.60;0.90;;;22.70;99.90;;;;;;5033195;28;20584;-82
2023/03/19 09:43:07;;;;;;;1.80;0.83;;;22.70;99.90;;;;;;5014681;28;20640;-81
2023/03/19 09:45:33;;;;;;;1.83;1.00;;;22.70;99.90;;;;;;5031476;28;20583;-81
2023/03/19 09:48:11;;;;;;;2.67;0.90;;;22.60;99.90;;;;;;5031142;28;20591;-81
2023/03/19 09:50:37;;;;;;;2.90;0.87;;;22.40;99.90;;;;;;5031035;28;20675;-80
2023/03/19 09:53:13;;;;;;;1.93;0.80;;;22.30;99.90;;;;;;5030729;28;20944;-81
2023/03/19 09:55:43;;;;;;;2.10;0.77;;;21.90;99.90;;;;;;5028435;28;20232;-80
2023/03/19 09:58:19;;;;;;;1.97;0.93;;;21.60;99.90;;;;;;5014625;28;20584;-80
2023/03/19 10:00:52;;;;;;;2.00;1.10;;;21.40;99.90;;;;;;5030459;28;20730;-80
2023/03/19 10:03:54;;;;;;;3.80;0.73;;;21.20;99.90;;;;;;5014793;28;21175;-80
2023/03/19 10:06:26;;;;;;;1.30;0.70;;;21.00;99.90;;;;;;4989958;28;20602;-80
2023/03/19 10:09:13;;;;;;;1.93;0.80;;;21.00;99.90;;;;;;5021258;28;20646;-80
2023/03/19 10:11:56;;;;;;;1.70;0.90;;;21.00;99.90;;;;;;5029786;28;20736;-80
2023/03/19 10:15:07;;;;;;;2.03;0.80;;;20.90;99.90;;;;;;5026548;28;20674;-80
2023/03/19 10:17:38;;;;;;;1.77;1.07;;;20.90;99.90;;;;;;4991917;28;20671;-80
2023/03/19 10:20:11;;;;;;;1.57;0.90;;;20.90;99.90;;;;;;5004026;28;20589;-80
2023/03/19 10:22:46;;;;;;;1.40;0.70;;;20.80;99.90;;;;;;5010773;28;20667;-80
2023/03/19 10:25:19;;;;;;;1.60;0.70;;;20.60;99.90;;;;;;5011147;28;20573;-79
2023/03/19 10:27:49;;;;;;;1.50;0.80;;;20.30;99.90;;;;;;5011829;28;20921;-79
2023/03/19 10:30:16;;;;;;;2.60;0.87;;;20.10;99.90;;;;;;5010732;28;20609;-79
2023/03/19 10:32:44;;;;;;;1.93;0.70;;;19.90;99.90;;;;;;5009600;28;20710;-79
2023/03/19 10:35:32;;;;;;;1.40;0.80;;;19.70;99.90;;;;;;5010864;28;20593;-78
2023/03/19 10:38:15;;;;;;;1.67;0.70;;;19.60;99.90;;;;;;5009885;28;20946;-78
2023/03/19 10:40:50;;;;;;;1.73;0.90;;;19.50;99.90;;;;;;5010770;28;20644;-78
2023/03/19 10:43:19;;;;;;;1.60;0.80;;;19.50;99.90;;;;;;5011372;28;20605;-78
2023/03/19 10:45:45;;;;;;;2.00;0.80;;;19.50;99.90;;;;;;5026984;28;20601;-78
2023/03/19 10:48:15;;;;;;;1.57;0.70;;;19.40;99.90;;;;;;5010187;28;20574;-78
2023/03/19 10:51:28;;;;;;;1.30;0.80;;;19.50;99.90;;;;;;5029034;28;20566;-78
2023/03/19 10:53:56;;;;;;;3.10;0.90;;;19.40;99.90;;;;;;4937258;28;21038;-76
2023/03/19 10:56:29;;;;;;;1.70;0.90;;;19.20;99.90;;;;;;4955107;28;20595;-76
2023/03/19 10:59:02;;;;;;;2.70;0.90;;;19.00;99.90;;;;;;4984771;28;20593;-76
2023/03/19 11:01:39;;;;;;;1.93;0.80;;;18.80;99.90;;;;;;5026277;28;20691;-76
2023/03/19 11:04:27;;;;;;;1.70;1.00;;;18.50;99.90;;;;;;5026946;28;20588;-76
2023/03/19 11:07:05;;;;;;;2.40;1.20;;;18.40;99.90;;;;;;5010071;28;20584;-76
2023/03/19 11:09:36;;;;;;;1.93;0.97;;;18.30;99.90;;;;;;5023187;28;20591;-76
2023/03/19 11:12:07;;;;;;;1.80;0.80;;;18.10;99.90;;;;;;5028410;28;20891;-76
2023/03/19 11:14:38;;;;;;;2.10;1.10;;;18.10;99.90;;;;;;5046220;28;20581;-76
2023/03/19 11:17:20;;;;;;;2.60;1.33;;;18.30;99.90;;;;;;5030705;28;20983;-76
2023/03/19 11:19:51;;;;;;;2.17;1.10;;;18.50;99.90;;;;;;5046185;28;20691;-76
2023/03/19 11:22:26;;;;;;;1.97;1.10;;;18.80;99.90;;;;;;5029063;28;20678;-76
2023/03/19 11:25:00;;;;;;;1.83;0.87;;;18.90;99.90;;;;;;5031298;28;20617;-76
2023/03/19 11:27:34;;;;;;;2.03;1.20;;;19.20;99.90;;;;;;5029433;28;20733;-76
2023/03/19 11:30:06;;;;;;;1.90;0.90;;;19.40;99.90;;;;;;5013182;28;20584;-76
2023/03/19 11:32:50;;;;;;;2.37;1.40;;;19.50;99.90;;;;;;5030531;28;20956;-76
2023/03/19 11:35:31;;;;;;;1.50;0.80;;;19.70;99.90;;;;;;5013668;28;21177;-76
2023/03/19 11:37:59;;;;;;;2.40;0.90;;;20.10;99.90;;;;;;5029065;28;21167;-76
2023/03/19 11:41:00;;;;;;;1.40;0.60;;;20.80;99.90;;;;;;5029809;28;20998;-77
2023/03/19 11:43:41;;;;;;;2.93;1.30;;;21.60;99.90;;;;;;5008849;28;20680;-77
2023/03/19 11:46:24;;;;;;;2.40;1.10;;;22.40;99.90;;;;;;5030778;28;21009;-77
2023/03/19 11:49:27;;;;;;;1.70;0.87;;;22.70;99.90;;;;;;5028707;28;20638;-77
2023/03/19 11:52:04;;;;;;;2.10;1.17;;;23.00;99.90;;;;;;5012648;28;21206;-77
2023/03/19 11:54:56;;;;;;;1.90;0.87;;;23.30;99.90;;;;;;5028909;28;20623;-77
2023/03/19 11:57:32;;;;;;;1.90;1.00;;;23.30;99.80;;;;;;5029542;28;20589;-77
2023/03/19 12:00:11;;;;;;;1.90;1.17;;;22.90;96.70;;;;;;5028526;28;21111;-77
2023/03/19 12:02:51;;;;;;;2.13;1.00;;;22.40;98.20;;;;;;5030562;28;21206;-77
2023/03/19 12:05:45;;;;;;;2.00;1.00;;;21.90;98.10;;;;;;5028662;28;21241;-77
2023/03/19 12:08:30;;;;;;;1.50;0.83;;;21.40;97.90;;;;;;5030461;28;20692;-78
2023/03/19 12:11:11;;;;;;;2.73;1.20;;;20.90;98.30;;;;;;5016315;28;20576;-77
2023/03/19 12:13:51;;;;;;;2.00;1.10;;;20.40;98.10;;;;;;5016568;28;20580;-77
2023/03/19 12:16:24;;;;;;;1.63;0.90;;;20.10;99.20;;;;;;5032978;28;20602;-77
2023/03/19 12:19:10;;;;;;;2.00;1.07;;;19.70;99.40;;;;;;5032686;28;20628;-77
2023/03/19 12:21:55;;;;;;;1.60;1.00;;;19.40;99.90;;;;;;5032480;28;21243;-77
2023/03/19 12:24:23;;;;;;;2.10;1.00;;;19.30;99.90;;;;;;5032906;28;20627;-76
2023/03/19 12:26:52;;;;;;;2.07;1.10;;;19.40;99.90;;;;;;5032637;28;20662;-77
2023/03/19 12:29:36;;;;;;;3.20;1.27;;;19.60;99.90;;;;;;5033840;28;21348;-77
2023/03/19 12:32:36;;;;;;;1.73;1.00;;;20.00;99.90;;;;;;5032069;28;20762;-77
2023/03/19 12:35:09;;;;;;;2.73;0.80;;;20.30;99.90;;;;;;5034037;28;20572;-76
2023/03/19 12:37:56;;;;;;;1.80;1.00;;;20.70;99.90;;;;;;5033747;28;20985;-79
2023/03/19 12:40:40;;;;;;;2.13;0.87;;;21.00;99.90;;;;;;5032151;28;20584;-77
2023/03/19 12:43:33;;;;;;;1.83;0.97;;;21.10;99.90;;;;;;5031842;28;20627;-77
2023/03/19 12:46:18;;;;;;;2.07;0.70;;;21.00;99.90;;;;;;5031768;28;21139;-77
2023/03/19 12:48:54;;;;;;;1.90;0.73;;;21.00;99.90;;;;;;5031724;28;20579;-77
2023/03/19 12:51:25;;;;;;;2.30;1.60;;;21.00;99.90;;;;;;5033424;28;20603;-77
2023/03/19 12:53:55;;;;;;;3.20;1.33;;;20.90;99.90;;;;;;5032304;28;20576;-77
2023/03/19 12:56:39;;;;;;;1.83;1.00;;;20.80;99.90;;;;;;5029867;28;20632;-77
2023/03/19 12:59:43;;;;;;;2.63;1.10;;;20.70;99.90;;;;;;5031902;28;20897;-76
2023/03/19 13:02:34;;;;;;;2.67;0.97;;;20.80;99.90;;;;;;5032015;28;20651;-76
2023/03/19 13:05:31;;;;;;;1.50;0.80;;;20.80;99.90;;;;;;5031411;28;20593;-76
2023/03/19 13:08:00;;;;;;;3.53;1.23;;;20.50;99.90;;;;;;5005294;28;20588;-76